Association Sportive et Culturelle de l' Aéroport de Blagnac

Section Vol Moteur

Bienvenue sur le site ASCAB Vol Moteur

LFBO TOULOUSE-BLAGNAC

METAR :
2022/12/05 17:30 LFBO 051730Z AUTO 11003KT CAVOK 08/03 Q1016 NOSIG

TAF :
2022/12/05 12:42 TAF TAF LFBO 051100Z 0512/0618 12005KT CAVOK